createdAt,value
2018-12-10T00:00:39.424Z,71.10
2018-12-10T00:05:42.637Z,72.50
2018-12-10T00:10:46.218Z,73.19
2018-12-10T00:15:49.485Z,71.38
2018-12-10T00:20:52.679Z,73.52
2018-12-10T00:25:55.864Z,71.33
2018-12-10T00:30:59.135Z,72.04
2018-12-10T00:36:02.378Z,73.22
2018-12-10T00:41:05.627Z,74.10
2018-12-10T00:46:08.789Z,69.76
2018-12-10T00:51:12.160Z,68.77
2018-12-10T00:56:15.411Z,68.99
2018-12-10T01:01:18.572Z,70.20
2018-12-10T01:06:21.738Z,69.65
2018-12-10T01:11:24.912Z,71.77
2018-12-10T01:16:28.114Z,70.63
2018-12-10T01:21:31.327Z,68.54
2018-12-10T01:26:35.621Z,70.57
2018-12-10T01:31:38.901Z,71.43
2018-12-10T01:36:42.064Z,68.68
2018-12-10T01:41:45.229Z,69.26
2018-12-10T01:46:48.497Z,69.02
2018-12-10T01:51:51.854Z,68.74
2018-12-10T01:56:55.118Z,68.97
2018-12-10T02:01:58.307Z,69.38
2018-12-10T02:07:01.527Z,69.03
2018-12-10T02:12:04.673Z,69.08
2018-12-10T02:17:07.882Z,69.18
2018-12-10T02:22:11.318Z,69.40
2018-12-10T02:27:14.573Z,68.38
2018-12-10T02:32:17.842Z,68.81
2018-12-10T02:37:21.013Z,68.65
2018-12-10T02:42:24.378Z,68.30
2018-12-10T02:47:27.627Z,68.66
2018-12-10T02:52:30.790Z,69.59
2018-12-10T02:57:34.046Z,69.66
2018-12-10T03:02:37.211Z,70.69
2018-12-10T03:07:40.482Z,70.39
2018-12-10T03:12:43.681Z,70.21
2018-12-10T03:17:46.950Z,71.05
2018-12-10T03:22:50.134Z,69.66
2018-12-10T03:27:53.303Z,69.61
2018-12-10T03:32:56.577Z,70.04
2018-12-10T03:37:59.811Z,76.00
2018-12-10T03:43:03.110Z,79.50
2018-12-10T03:48:06.385Z,79.92
2018-12-10T03:53:09.686Z,80.14
2018-12-10T03:58:13.099Z,79.63
2018-12-10T04:03:16.293Z,78.72
2018-12-10T04:08:19.593Z,78.80
2018-12-10T04:13:22.768Z,78.94
2018-12-10T04:18:26.072Z,78.92
2018-12-10T04:23:29.375Z,79.13
2018-12-10T04:28:32.693Z,79.33
2018-12-10T04:33:36.003Z,79.59
2018-12-10T04:38:39.399Z,78.98
2018-12-10T04:43:42.702Z,79.89
2018-12-10T04:48:45.865Z,78.63
2018-12-10T04:53:49.040Z,79.99
2018-12-10T04:58:52.222Z,79.60
2018-12-10T05:03:55.550Z,77.86
2018-12-10T05:08:58.758Z,77.12
2018-12-10T05:14:02.154Z,76.78
2018-12-10T05:19:05.398Z,77.03
2018-12-10T05:24:08.595Z,77.23
2018-12-10T05:29:11.767Z,77.03
2018-12-10T05:34:15.054Z,76.84
2018-12-10T05:39:18.264Z,75.54
2018-12-10T05:44:21.530Z,76.27
2018-12-10T05:49:24.683Z,75.72
2018-12-10T05:54:27.866Z,74.76
2018-12-10T05:59:31.041Z,75.02
2018-12-10T06:04:34.195Z,75.28
2018-12-10T06:09:37.463Z,73.99
2018-12-10T06:14:40.626Z,74.31
2018-12-10T06:19:44.027Z,74.03
2018-12-10T06:24:47.405Z,73.67
2018-12-10T06:29:50.839Z,73.60
2018-12-10T06:34:54.266Z,74.05
2018-12-10T06:39:57.438Z,73.69
2018-12-10T06:45:00.627Z,73.75
2018-12-10T06:50:04.202Z,73.51
2018-12-10T06:55:07.698Z,73.22
2018-12-10T07:00:12.054Z,73.06
2018-12-10T07:05:15.321Z,72.78
2018-12-10T07:10:18.619Z,71.90
2018-12-10T07:15:21.942Z,71.85
2018-12-10T07:20:25.298Z,71.65
2018-12-10T07:25:28.649Z,71.04
2018-12-10T07:30:31.966Z,70.93
2018-12-10T07:35:35.334Z,70.30
2018-12-10T07:40:38.558Z,70.39
2018-12-10T07:45:41.762Z,71.25
2018-12-10T07:50:44.939Z,71.44
2018-12-10T08:01:19.486Z,72.70
2018-12-10T08:06:22.705Z,72.68
2018-12-10T08:11:25.891Z,72.35
2018-12-10T08:16:29.062Z,72.45
2018-12-10T08:21:32.463Z,72.57
2018-12-10T08:26:35.622Z,77.25
2018-12-10T08:31:38.850Z,78.87
2018-12-10T08:36:42.036Z,79.55
2018-12-10T08:41:45.506Z,78.48
2018-12-10T08:46:48.674Z,77.56
2018-12-10T08:51:51.930Z,76.19
2018-12-10T08:56:55.377Z,75.27
2018-12-10T09:01:58.753Z,74.53
2018-12-10T09:07:01.962Z,73.28
2018-12-10T09:12:05.201Z,74.31
2018-12-10T09:17:08.367Z,74.42
2018-12-10T09:22:11.570Z,75.94
2018-12-10T09:27:14.810Z,74.62
2018-12-10T09:32:18.111Z,74.49
2018-12-10T09:37:21.283Z,72.74
2018-12-10T09:42:24.513Z,72.24
2018-12-10T09:47:27.792Z,71.72
2018-12-10T09:52:31.016Z,70.42
2018-12-10T09:57:34.184Z,69.80
2018-12-10T10:02:37.341Z,68.62
2018-12-10T10:07:40.534Z,67.08
2018-12-10T10:12:43.823Z,68.82
2018-12-10T10:17:47.146Z,67.28
2018-12-10T10:22:50.405Z,67.70
2018-12-10T10:27:53.594Z,67.06
2018-12-10T10:32:56.751Z,69.74
2018-12-10T10:37:59.917Z,71.37
2018-12-10T10:43:03.182Z,72.09
2018-12-10T10:48:06.450Z,70.58
2018-12-10T10:53:09.621Z,69.33
2018-12-10T10:58:12.818Z,68.65
2018-12-10T11:03:21.296Z,68.13
2018-12-10T11:08:24.618Z,66.43
2018-12-10T11:13:27.902Z,67.86
2018-12-10T11:18:32.430Z,68.75
2018-12-10T11:23:35.676Z,66.98
2018-12-10T11:28:38.862Z,64.58
2018-12-10T11:33:42.046Z,63.66
2018-12-10T11:38:46.070Z,62.46
2018-12-10T11:43:49.274Z,64.12
2018-12-10T11:48:52.497Z,59.00
2018-12-10T11:53:55.650Z,59.07
2018-12-10T11:58:58.919Z,60.65
2018-12-10T12:04:02.123Z,59.40
2018-12-10T12:09:06.057Z,59.49
2018-12-10T12:14:09.316Z,56.81
2018-12-10T12:19:12.555Z,57.43
2018-12-10T12:24:15.800Z,60.61
2018-12-10T12:29:19.169Z,59.68
2018-12-10T12:34:22.346Z,59.43
2018-12-10T12:39:25.586Z,59.94
2018-12-10T12:44:28.758Z,61.20
2018-12-10T12:49:32.054Z,60.57
2018-12-10T12:54:35.405Z,60.08
2018-12-10T12:59:38.614Z,60.17
2018-12-10T13:04:41.790Z,61.07
2018-12-10T13:09:45.046Z,60.33
2018-12-10T13:14:48.234Z,61.71
2018-12-10T13:19:51.457Z,60.66
2018-12-10T13:24:54.758Z,61.53
2018-12-10T13:29:57.990Z,62.52
2018-12-10T13:35:01.184Z,62.94
2018-12-10T13:40:05.201Z,65.03
2018-12-10T13:45:08.382Z,63.60
2018-12-10T13:50:11.626Z,63.79
2018-12-10T13:55:14.809Z,64.27
2018-12-10T14:00:18.073Z,64.76
2018-12-10T14:05:21.307Z,65.14
2018-12-10T14:10:24.618Z,64.79
2018-12-10T14:15:28.962Z,65.44
2018-12-10T14:20:32.208Z,64.81
2018-12-10T14:25:35.478Z,63.93
2018-12-10T14:30:39.226Z,63.74
2018-12-10T14:35:42.410Z,63.83
2018-12-10T14:40:45.718Z,63.22
2018-12-10T14:45:48.998Z,63.61
2018-12-10T14:50:52.166Z,64.58
2018-12-10T14:55:55.343Z,64.92
2018-12-10T15:06:31.914Z,65.43
2018-12-10T15:11:35.177Z,64.88
2018-12-10T15:16:38.353Z,66.21
2018-12-10T15:21:41.683Z,67.11
2018-12-10T15:26:44.874Z,67.90
2018-12-10T15:31:48.070Z,68.36
2018-12-10T15:36:51.264Z,67.94
2018-12-10T15:41:54.545Z,67.10
2018-12-10T15:46:57.807Z,67.36
2018-12-10T15:52:01.059Z,66.75
2018-12-10T15:57:04.450Z,66.62
2018-12-10T16:02:07.694Z,67.04
2018-12-10T16:52:28.656Z,66.55
2018-12-10T16:57:31.960Z,65.93
2018-12-10T17:41:57.506Z,66.17
2018-12-10T17:47:00.834Z,67.45
2018-12-10T17:52:04.167Z,68.54
2018-12-10T18:55:19.848Z,74.26
2018-12-10T19:00:23.232Z,73.46
2018-12-10T19:05:29.080Z,73.02
2018-12-10T19:10:44.857Z,72.32
2018-12-10T19:15:48.285Z,71.80
2018-12-10T19:20:51.721Z,71.73
2018-12-10T19:25:55.084Z,72.39
2018-12-10T19:30:58.280Z,74.07
2018-12-10T19:36:01.501Z,75.15
2018-12-10T19:41:04.863Z,75.86
2018-12-10T19:46:08.252Z,76.43
2018-12-10T19:56:38.872Z,74.48
2018-12-10T20:35:27.826Z,75.50
2018-12-10T20:40:37.585Z,75.07
2018-12-10T20:45:46.522Z,74.51
2018-12-10T20:50:55.733Z,74.80
2018-12-10T20:56:05.385Z,74.90
2018-12-10T21:01:16.585Z,77.26
2018-12-10T21:06:31.252Z,79.02
2018-12-10T21:11:34.653Z,80.63
2018-12-10T21:16:38.141Z,80.64
2018-12-10T21:21:41.603Z,80.07
2018-12-10T21:26:45.320Z,79.72
2018-12-10T21:31:48.926Z,79.35
2018-12-10T21:36:52.231Z,78.61
2018-12-10T21:41:55.733Z,78.75
2018-12-10T21:46:59.209Z,78.39
2018-12-10T21:52:02.420Z,77.98
2018-12-10T21:57:05.705Z,78.32
2018-12-10T22:02:09.125Z,77.89
2018-12-10T22:12:43.556Z,79.67
2018-12-10T22:17:46.901Z,79.45
2018-12-10T22:22:50.293Z,79.02
2018-12-10T22:27:53.793Z,78.65
2018-12-10T22:32:57.105Z,78.70
2018-12-10T22:38:00.469Z,79.22
2018-12-10T22:43:03.885Z,80.35
2018-12-10T22:48:07.276Z,81.46
2018-12-10T22:53:10.770Z,81.49
2018-12-10T22:58:14.113Z,82.28
2018-12-10T23:03:17.398Z,81.96
2018-12-10T23:08:20.665Z,81.14
2018-12-10T23:13:23.856Z,81.19
2018-12-10T23:18:27.113Z,81.13
2018-12-10T23:23:30.444Z,81.59
2018-12-10T23:28:33.834Z,81.17
2018-12-10T23:33:37.089Z,81.75
2018-12-10T23:38:40.367Z,81.36
2018-12-10T23:43:43.552Z,82.20
2018-12-10T23:48:46.936Z,82.26
2018-12-10T23:53:50.150Z,82.46
2018-12-10T23:58:53.626Z,82.78
